41IS weather

Rees Field
Grand Ridge, Illinois, United States

Public forecast

Using degrees Fahrenheit for public forecast. Weather courtesy of forecast.io.

METAR (pilot weather report)

Closest report is Illinois Valley Regional Airport-Walter A Duncan Field, 18.1 nm (33.5 km) WNW. Retrieved 2019/08/20 14:35 UTC (24 minutes ago):

KVYS 201435Z AUTO 17007KT 3SM -TSRA SCT037 BKN043 OVC065 23/22 A2998 RMK AO2 LTG DSNT ALQS T02250220

TAF (pilot weather forecast)

Closest forecast is Central Illinois Regional Airport at Bloomington-Normal, 44.0 nm (81.4 km) S. Retrieved 2019/08/20 12:36 UTC (2 hours ago):

TAF KBMI 201133Z 2012/2112 18006KT P6SM FEW040 FM201500 16010KT P6SM VCTS BKN025CB TEMPO 2015/2016 VRB25G45KT 1SM +TSRA BR BKN012CB FM201700 23008KT P6SM SCT050 BKN120 FM210100 VRB03KT P6SM SCT120 BKN250